Terminal Aerodrome Forecast
Issued by NWS

Home | Current Version | Previous Version | Text Only | Print | Product List | Glossary Off
Versions: 1 2 3 4 5 6 7 8 9 10 11 12

000
FTUS42 KMHX 261738
TAFOAJ
TAF
KOAJ 261738Z 2618/2718 05006KT P6SM SCT045
     FM270800 VRB03KT 5SM BR SKC
     FM271200 06005KT P6SM SKC
      AMD LTD TO CLD VIS AND WIND=

USA.gov is the U.S. government's official web portal to all federal, state and local government web resources and services.